Time;durP1;ratioP1;P1;durP2;ratioP2;P2;SDS_P1;SDS_P2;PMS_P1;PMS_P2;Temp;Humidity;BMP_temperature;BMP_pressure;BME280_temperature;BME280_humidity;BME280_pressure;Samples;Min_cycle;Max_cycle;Signal;HPM_P1;HPM_P2
2021/01/18 00:00:05;;;;;;;15.52;10.80;;;-5.00;99.90;;;;;;4858222;28;20406;-76
2021/01/18 00:02:32;;;;;;;16.20;11.25;;;-5.00;99.90;;;;;;4859469;28;20443;-77
2021/01/18 00:04:58;;;;;;;16.77;11.07;;;-5.00;99.90;;;;;;4870299;28;20436;-76
2021/01/18 00:07:23;;;;;;;21.67;12.00;;;-5.00;99.90;;;;;;4898905;28;20420;-76
2021/01/18 00:09:49;;;;;;;14.88;10.57;;;-5.00;99.90;;;;;;4875522;28;20451;-76
2021/01/18 00:12:15;;;;;;;19.10;11.40;;;-5.10;99.90;;;;;;4867979;28;20779;-77
2021/01/18 00:14:41;;;;;;;17.50;11.43;;;-5.20;99.90;;;;;;4855833;29;20429;-75
2021/01/18 00:17:07;;;;;;;18.37;11.40;;;-5.20;99.90;;;;;;4835561;29;20441;-75
2021/01/18 00:19:32;;;;;;;18.57;11.17;;;-5.30;99.90;;;;;;4840723;29;20429;-77
2021/01/18 00:21:58;;;;;;;17.40;11.27;;;-5.30;99.90;;;;;;4913757;29;20424;-76
2021/01/18 00:24:24;;;;;;;20.27;11.13;;;-5.40;99.90;;;;;;4892573;29;20433;-75
2021/01/18 00:26:49;;;;;;;17.05;10.80;;;-5.40;99.90;;;;;;4860146;28;20419;-76
2021/01/18 00:29:15;;;;;;;14.70;10.43;;;-5.40;99.90;;;;;;4886265;29;20434;-76
2021/01/18 00:31:44;;;;;;;12.50;8.90;;;-5.40;99.90;;;;;;4853035;29;20805;-76
2021/01/18 00:34:10;;;;;;;11.90;8.15;;;-5.40;99.90;;;;;;4849888;29;20427;-76
2021/01/18 00:36:36;;;;;;;13.57;8.45;;;-5.50;99.90;;;;;;4866899;28;20464;-77
2021/01/18 00:39:03;;;;;;;15.27;8.83;;;-5.50;99.90;;;;;;4858361;28;20801;-76
2021/01/18 00:41:28;;;;;;;16.38;10.95;;;-5.50;99.90;;;;;;4866115;28;20500;-78
2021/01/18 00:43:54;;;;;;;14.85;8.50;;;-5.50;99.90;;;;;;4890108;28;20414;-76
2021/01/18 00:46:20;;;;;;;11.05;8.73;;;-5.50;99.90;;;;;;4899728;28;20409;-78
2021/01/18 00:48:46;;;;;;;12.43;8.85;;;-5.50;99.90;;;;;;4847181;28;20410;-76
2021/01/18 00:51:12;;;;;;;14.90;9.52;;;-5.50;99.90;;;;;;4864167;28;20418;-76
2021/01/18 00:53:37;;;;;;;14.20;8.83;;;-5.60;99.90;;;;;;4849260;28;20825;-76
2021/01/18 00:56:04;;;;;;;11.90;8.30;;;-5.60;99.90;;;;;;4856938;28;20419;-76
2021/01/18 00:58:39;;;;;;;13.23;9.15;;;-5.60;99.90;;;;;;4838943;28;20477;-76
2021/01/18 01:01:24;;;;;;;12.27;8.60;;;-5.60;99.90;;;;;;4867989;29;20464;-76
2021/01/18 01:03:51;;;;;;;11.60;9.00;;;-5.60;99.90;;;;;;4862836;28;20446;-77
2021/01/18 01:06:17;;;;;;;15.73;9.73;;;-5.60;99.90;;;;;;4873903;28;20423;-76
2021/01/18 01:08:43;;;;;;;12.83;8.87;;;-5.60;99.90;;;;;;4846620;29;20430;-75
2021/01/18 01:11:08;;;;;;;14.07;9.10;;;-5.60;99.90;;;;;;4873613;28;20503;-75
2021/01/18 01:13:34;;;;;;;12.15;8.48;;;-5.60;99.90;;;;;;4840722;29;20521;-75
2021/01/18 01:16:00;;;;;;;12.05;9.13;;;-5.50;99.90;;;;;;4864696;28;20424;-76
2021/01/18 01:18:26;;;;;;;12.00;8.50;;;-5.60;99.90;;;;;;4838917;29;20477;-75
2021/01/18 01:20:52;;;;;;;12.65;8.30;;;-5.60;99.90;;;;;;4867929;29;20465;-76
2021/01/18 01:23:18;;;;;;;13.90;8.30;;;-5.60;99.90;;;;;;4863230;28;20419;-75
2021/01/18 01:25:43;;;;;;;17.00;10.18;;;-5.60;99.90;;;;;;4867945;29;20429;-75
2021/01/18 01:28:09;;;;;;;16.87;10.33;;;-5.60;99.90;;;;;;4863598;29;20404;-75
2021/01/18 01:30:35;;;;;;;16.00;10.07;;;-5.70;99.90;;;;;;4879590;28;20410;-76
2021/01/18 01:33:01;;;;;;;13.07;9.68;;;-5.70;99.90;;;;;;4836445;29;20410;-75
2021/01/18 01:35:27;;;;;;;16.92;10.50;;;-5.80;99.90;;;;;;4886275;28;20428;-75
2021/01/18 01:37:53;;;;;;;19.83;10.95;;;-5.80;99.90;;;;;;4925879;29;20449;-76
2021/01/18 01:40:19;;;;;;;12.97;10.13;;;-5.80;99.90;;;;;;4840839;29;20423;-75
2021/01/18 01:42:45;;;;;;;18.87;11.40;;;-5.90;99.90;;;;;;4851092;29;20422;-75
2021/01/18 01:45:12;;;;;;;17.97;10.93;;;-5.90;99.90;;;;;;4877193;29;20465;-75
2021/01/18 01:47:39;;;;;;;17.15;10.27;;;-5.90;99.90;;;;;;4844678;29;20884;-75
2021/01/18 01:50:09;;;;;;;17.95;10.82;;;-5.90;99.90;;;;;;4854935;28;20505;-75
2021/01/18 01:52:36;;;;;;;19.30;10.52;;;-6.00;99.90;;;;;;4837091;28;20420;-75
2021/01/18 01:55:05;;;;;;;12.82;9.30;;;-6.00;99.90;;;;;;4862999;28;20929;-75
2021/01/18 01:57:30;;;;;;;14.43;10.60;;;-6.00;99.90;;;;;;4855291;29;20408;-76
2021/01/18 01:59:57;;;;;;;15.13;9.57;;;-6.10;99.90;;;;;;4876125;28;20449;-75
2021/01/18 02:02:23;;;;;;;15.02;9.40;;;-6.10;99.90;;;;;;4858503;29;21123;-76
2021/01/18 02:04:49;;;;;;;11.77;8.70;;;-6.10;99.90;;;;;;4871189;28;20461;-76
2021/01/18 02:07:21;;;;;;;13.55;9.10;;;-6.10;99.90;;;;;;4869188;28;20436;-75
2021/01/18 02:09:47;;;;;;;13.60;9.87;;;-6.10;99.90;;;;;;4873379;28;20490;-75
2021/01/18 02:12:13;;;;;;;16.10;10.20;;;-6.10;99.90;;;;;;4869307;28;20909;-76
2021/01/18 02:15:21;;;;;;;13.05;9.60;;;-6.10;99.90;;;;;;4874227;28;20428;-76
2021/01/18 02:17:52;;;;;;;13.52;9.68;;;-6.10;99.90;;;;;;4832789;29;20420;-77
2021/01/18 02:20:38;;;;;;;15.23;9.35;;;-6.10;99.90;;;;;;4875550;29;20416;-76
2021/01/18 02:23:15;;;;;;;13.25;8.85;;;-6.20;99.90;;;;;;4871688;28;20436;-77
2021/01/18 02:25:41;;;;;;;16.25;9.38;;;-6.10;99.90;;;;;;4880644;29;20429;-76
2021/01/18 02:28:20;;;;;;;12.25;9.07;;;-6.20;99.90;;;;;;4862948;28;20496;-76
2021/01/18 02:31:43;;;;;;;13.38;9.23;;;-6.20;99.90;;;;;;4865191;28;20425;-76
2021/01/18 02:34:22;;;;;;;14.38;9.02;;;-6.20;99.90;;;;;;4902513;29;20531;-77
2021/01/18 02:37:11;;;;;;;15.00;9.85;;;-6.20;99.90;;;;;;4896718;29;21066;-75
2021/01/18 02:39:51;;;;;;;16.70;9.60;;;-6.30;99.90;;;;;;4894785;29;20631;-75
2021/01/18 02:42:26;;;;;;;13.68;9.25;;;-6.40;99.90;;;;;;4850081;28;20432;-76
2021/01/18 02:44:56;;;;;;;12.40;9.10;;;-6.40;99.90;;;;;;4843516;28;20431;-75
2021/01/18 02:47:21;;;;;;;12.00;9.05;;;-6.50;99.90;;;;;;4858282;28;20411;-75
2021/01/18 02:49:51;;;;;;;14.48;10.02;;;-6.50;99.90;;;;;;4844739;28;20430;-78
2021/01/18 02:52:16;;;;;;;14.23;10.23;;;-6.50;99.90;;;;;;4873910;29;20944;-75
2021/01/18 02:54:42;;;;;;;15.50;11.03;;;-6.50;99.90;;;;;;4855779;28;20480;-74
2021/01/18 02:57:15;;;;;;;15.27;9.98;;;-6.60;99.90;;;;;;4860709;28;20943;-74
2021/01/18 02:59:43;;;;;;;15.38;9.80;;;-6.70;99.90;;;;;;4847929;28;20514;-75
2021/01/18 03:02:22;;;;;;;13.18;9.68;;;-6.70;99.90;;;;;;4883544;28;20407;-77
2021/01/18 03:05:11;;;;;;;15.10;10.52;;;-6.70;99.90;;;;;;4846073;28;20792;-75
2021/01/18 03:07:41;;;;;;;15.00;9.63;;;-6.80;99.90;;;;;;4858310;28;20957;-76
2021/01/18 03:10:08;;;;;;;13.60;10.20;;;-6.80;99.90;;;;;;4858307;29;20765;-74
2021/01/18 03:13:00;;;;;;;17.40;10.70;;;-6.80;99.90;;;;;;4857122;28;20408;-75
2021/01/18 03:15:27;;;;;;;15.45;9.48;;;-6.80;99.90;;;;;;4847506;29;20909;-75
2021/01/18 03:17:54;;;;;;;10.63;8.73;;;-6.80;99.90;;;;;;4907361;28;20396;-75
2021/01/18 03:20:20;;;;;;;12.52;9.25;;;-6.90;99.90;;;;;;4870470;29;21193;-75
2021/01/18 03:22:46;;;;;;;14.18;9.77;;;-6.70;99.90;;;;;;4875703;28;20417;-76
2021/01/18 03:25:12;;;;;;;13.60;8.77;;;-6.80;99.90;;;;;;4875368;29;20477;-75
2021/01/18 03:27:51;;;;;;;17.48;9.93;;;-6.90;99.90;;;;;;4869938;28;20425;-74
2021/01/18 03:30:19;;;;;;;13.88;8.95;;;-6.90;99.90;;;;;;4839021;28;20418;-74
2021/01/18 03:32:50;;;;;;;15.18;9.85;;;-6.90;99.90;;;;;;4912965;28;20432;-75
2021/01/18 03:35:16;;;;;;;23.48;12.05;;;-6.90;99.90;;;;;;4854142;29;20563;-74
2021/01/18 03:37:41;;;;;;;15.73;11.13;;;-6.90;99.90;;;;;;4859719;29;20413;-75
2021/01/18 03:40:07;;;;;;;18.00;10.95;;;-6.90;99.90;;;;;;4895426;28;20413;-75
2021/01/18 03:42:33;;;;;;;19.92;10.75;;;-6.90;99.90;;;;;;4852440;28;20436;-75
2021/01/18 03:44:59;;;;;;;17.75;10.55;;;-6.90;99.90;;;;;;4854750;28;20400;-75
2021/01/18 03:47:24;;;;;;;14.50;10.17;;;-6.90;99.90;;;;;;4881340;29;20409;-76
2021/01/18 03:49:50;;;;;;;15.10;10.47;;;-6.90;99.90;;;;;;4867572;28;20470;-75
2021/01/18 03:52:15;;;;;;;13.85;10.63;;;-7.00;99.90;;;;;;4886869;28;20396;-75
2021/01/18 03:54:41;;;;;;;13.60;10.45;;;-7.00;99.90;;;;;;4846215;28;21221;-74
2021/01/18 03:57:07;;;;;;;14.17;10.17;;;-7.00;99.90;;;;;;4865474;29;20479;-74
2021/01/18 03:59:32;;;;;;;15.23;10.17;;;-7.00;99.90;;;;;;4867879;28;20442;-75
2021/01/18 04:01:58;;;;;;;16.50;10.38;;;-7.00;99.90;;;;;;4885804;29;20455;-74
2021/01/18 04:04:24;;;;;;;15.48;10.07;;;-7.10;99.90;;;;;;4864604;29;20406;-74
2021/01/18 04:06:49;;;;;;;14.13;10.30;;;-7.10;99.90;;;;;;4875880;29;20415;-74
2021/01/18 04:09:15;;;;;;;16.20;10.77;;;-7.10;99.90;;;;;;4895920;28;20530;-75
2021/01/18 04:11:41;;;;;;;21.00;11.10;;;-7.10;99.90;;;;;;4881793;28;20845;-75
2021/01/18 04:14:06;;;;;;;18.90;10.47;;;-7.10;99.90;;;;;;4860624;29;20428;-74
2021/01/18 04:16:39;;;;;;;13.37;10.20;;;-7.10;99.90;;;;;;4883368;28;20421;-75
2021/01/18 04:19:05;;;;;;;16.80;11.05;;;-7.10;99.90;;;;;;4876293;28;20485;-76
2021/01/18 04:21:30;;;;;;;20.05;12.43;;;-7.20;99.90;;;;;;4856233;28;20501;-74
2021/01/18 04:23:56;;;;;;;14.65;10.57;;;-7.20;99.90;;;;;;4882819;28;20434;-74
2021/01/18 04:26:22;;;;;;;17.10;11.10;;;-7.20;99.90;;;;;;4863673;29;20471;-76
2021/01/18 04:28:48;;;;;;;15.87;11.13;;;-7.20;99.90;;;;;;4828208;29;20414;-74
2021/01/18 04:31:13;;;;;;;16.73;10.90;;;-7.20;99.90;;;;;;4866960;29;20397;-74
2021/01/18 04:33:39;;;;;;;17.02;11.50;;;-7.20;99.90;;;;;;4863823;29;20428;-78
2021/01/18 04:36:05;;;;;;;15.60;10.18;;;-7.20;99.90;;;;;;4864708;28;20779;-75
2021/01/18 04:38:30;;;;;;;19.27;10.97;;;-7.20;99.90;;;;;;4841985;28;20398;-75
2021/01/18 04:40:56;;;;;;;14.00;11.00;;;-7.30;99.90;;;;;;4852620;28;20425;-76
2021/01/18 04:43:22;;;;;;;16.60;11.93;;;-7.20;99.90;;;;;;4859703;29;20845;-75
2021/01/18 04:45:49;;;;;;;18.95;11.30;;;-7.30;99.90;;;;;;4870797;29;20398;-76
2021/01/18 04:48:14;;;;;;;14.88;11.50;;;-7.40;99.90;;;;;;4868890;28;20440;-75
2021/01/18 04:50:40;;;;;;;18.55;11.52;;;-7.40;99.90;;;;;;4861657;29;20913;-77
2021/01/18 04:53:16;;;;;;;16.05;10.63;;;-7.40;99.90;;;;;;4857978;29;20445;-75
2021/01/18 04:55:41;;;;;;;16.93;12.10;;;-7.40;99.90;;;;;;4876991;28;20447;-74
2021/01/18 04:58:17;;;;;;;16.57;11.13;;;-7.40;99.90;;;;;;4862676;28;20928;-75
2021/01/18 05:00:50;;;;;;;16.65;11.40;;;-7.30;99.90;;;;;;4867267;28;20424;-75
2021/01/18 05:03:17;;;;;;;12.90;11.03;;;-7.30;99.90;;;;;;4860183;29;20407;-76
2021/01/18 05:05:51;;;;;;;18.38;11.73;;;-7.30;99.90;;;;;;4863384;29;20766;-75
2021/01/18 05:08:50;;;;;;;19.67;13.82;;;-7.30;99.90;;;;;;4861294;29;20427;-75
2021/01/18 05:11:16;;;;;;;20.58;12.27;;;-7.30;99.90;;;;;;4874176;29;20551;-75
2021/01/18 05:13:43;;;;;;;18.00;10.95;;;-7.20;99.90;;;;;;4873700;29;20866;-77
2021/01/18 05:16:08;;;;;;;17.58;10.52;;;-7.20;99.90;;;;;;4879347;28;20412;-76
2021/01/18 05:18:35;;;;;;;15.73;10.10;;;-7.20;99.90;;;;;;4846844;28;20422;-77
2021/01/18 05:21:02;;;;;;;14.60;10.73;;;-7.10;99.90;;;;;;4880268;28;20480;-76
2021/01/18 05:23:27;;;;;;;16.38;11.10;;;-7.00;99.90;;;;;;4834271;29;20433;-77
2021/01/18 05:26:16;;;;;;;16.92;11.43;;;-7.00;99.90;;;;;;4864618;29;20914;-77
2021/01/18 05:28:45;;;;;;;21.10;11.90;;;-7.00;99.90;;;;;;4860865;29;20448;-77
2021/01/18 05:31:26;;;;;;;16.85;10.35;;;-7.00;99.90;;;;;;4870035;28;20433;-77
2021/01/18 05:33:55;;;;;;;19.47;11.30;;;-7.00;99.90;;;;;;4877863;28;20441;-76
2021/01/18 05:36:46;;;;;;;16.48;10.10;;;-7.00;99.90;;;;;;4863347;29;20466;-78
2021/01/18 05:39:13;;;;;;;17.70;11.63;;;-6.90;99.90;;;;;;4890814;28;20936;-75
2021/01/18 05:41:39;;;;;;;17.25;11.55;;;-6.80;99.90;;;;;;4860580;28;21104;-76
2021/01/18 05:44:06;;;;;;;17.93;11.47;;;-6.80;99.90;;;;;;4838788;29;20551;-76
2021/01/18 05:46:33;;;;;;;17.10;11.88;;;-6.70;99.90;;;;;;4870851;29;20425;-76
2021/01/18 05:49:06;;;;;;;16.98;11.55;;;-6.70;99.90;;;;;;4894027;28;20881;-77
2021/01/18 05:51:33;;;;;;;18.90;12.38;;;-6.70;99.90;;;;;;4895684;29;20817;-75
2021/01/18 05:54:00;;;;;;;16.93;11.60;;;-6.60;99.90;;;;;;4872959;28;20533;-76
2021/01/18 05:56:26;;;;;;;23.45;13.75;;;-6.50;99.90;;;;;;4846738;28;20398;-75
2021/01/18 05:58:51;;;;;;;30.10;17.50;;;-6.50;99.90;;;;;;4899752;28;20423;-75
2021/01/18 06:01:39;;;;;;;36.00;20.70;;;-6.50;99.90;;;;;;4864687;29;20469;-74
2021/01/18 06:04:12;;;;;;;76.70;47.40;;;-6.60;99.90;;;;;;4870152;28;20459;-76
2021/01/18 06:06:38;;;;;;;64.53;40.30;;;-6.70;99.90;;;;;;4856345;28;20440;-76
2021/01/18 06:09:04;;;;;;;54.33;34.03;;;-6.60;99.90;;;;;;4872545;29;20462;-75
2021/01/18 06:11:30;;;;;;;48.95;29.58;;;-6.60;99.90;;;;;;4920171;28;20408;-76
2021/01/18 06:14:00;;;;;;;48.22;30.70;;;-6.60;99.90;;;;;;4850300;29;21130;-76
2021/01/18 06:16:25;;;;;;;31.75;20.77;;;-6.50;99.90;;;;;;4846414;28;20401;-76
2021/01/18 06:19:02;;;;;;;23.77;15.00;;;-6.60;99.90;;;;;;4877488;29;20459;-76
2021/01/18 06:21:41;;;;;;;19.80;13.55;;;-6.50;99.90;;;;;;4856247;29;20493;-76
2021/01/18 06:24:18;;;;;;;20.83;13.65;;;-6.50;99.90;;;;;;4875047;28;20423;-76
2021/01/18 06:26:47;;;;;;;19.02;13.45;;;-6.40;99.90;;;;;;4845894;28;20445;-76
2021/01/18 06:29:41;;;;;;;18.75;13.38;;;-6.40;99.90;;;;;;4850777;29;20411;-75
2021/01/18 06:32:13;;;;;;;21.90;12.40;;;-6.30;99.90;;;;;;4843864;29;20923;-76
2021/01/18 06:34:38;;;;;;;18.67;12.02;;;-6.30;99.90;;;;;;4856732;28;20434;-75
2021/01/18 06:37:04;;;;;;;19.83;13.63;;;-6.20;99.90;;;;;;4839595;29;20501;-76
2021/01/18 06:39:30;;;;;;;26.60;18.77;;;-6.20;99.90;;;;;;4835245;29;20922;-75
2021/01/18 06:41:58;;;;;;;28.33;17.95;;;-6.20;99.90;;;;;;4857794;28;20414;-76
2021/01/18 06:44:44;;;;;;;23.60;14.20;;;-6.10;99.90;;;;;;4845339;28;20425;-79
2021/01/18 06:47:31;;;;;;;26.43;18.57;;;-6.10;99.90;;;;;;4853540;29;20431;-76
2021/01/18 06:50:01;;;;;;;25.83;16.30;;;-6.00;99.90;;;;;;4871255;28;20405;-75
2021/01/18 06:52:28;;;;;;;18.23;12.27;;;-6.10;99.90;;;;;;4828842;29;20420;-76
2021/01/18 06:54:58;;;;;;;17.23;11.88;;;-6.10;99.90;;;;;;4841076;28;20598;-76
2021/01/18 06:57:42;;;;;;;22.02;11.95;;;-6.10;99.90;;;;;;4908470;28;20494;-75
2021/01/18 07:00:08;;;;;;;18.77;11.70;;;-6.00;99.90;;;;;;4850566;29;20422;-75
2021/01/18 07:02:37;;;;;;;17.85;11.23;;;-6.00;99.90;;;;;;4869961;28;20923;-76
2021/01/18 07:05:10;;;;;;;21.25;12.70;;;-6.00;99.90;;;;;;4865040;29;20440;-76
2021/01/18 07:07:36;;;;;;;19.13;11.93;;;-6.00;99.90;;;;;;4866142;29;20387;-75
2021/01/18 07:10:07;;;;;;;22.65;13.73;;;-5.90;99.90;;;;;;4901295;28;20487;-75
2021/01/18 07:12:32;;;;;;;19.88;11.90;;;-6.00;99.90;;;;;;4866771;29;20408;-76
2021/01/18 07:15:06;;;;;;;20.90;13.63;;;-6.00;99.90;;;;;;4894304;28;20415;-75
2021/01/18 07:17:54;;;;;;;20.55;10.90;;;-5.90;99.90;;;;;;4901330;28;20411;-76
2021/01/18 07:20:27;;;;;;;18.70;11.68;;;-5.80;99.90;;;;;;4850735;28;20465;-75
2021/01/18 07:23:07;;;;;;;17.40;10.75;;;-5.80;99.90;;;;;;4862415;29;20846;-76
2021/01/18 07:25:41;;;;;;;15.40;10.70;;;-5.70;99.90;;;;;;4886315;28;20399;-75
2021/01/18 07:28:09;;;;;;;16.88;11.70;;;-5.60;99.90;;;;;;4868378;28;20406;-76
2021/01/18 07:30:36;;;;;;;18.17;11.25;;;-5.60;99.90;;;;;;4900112;28;20476;-76
2021/01/18 07:33:12;;;;;;;17.90;12.07;;;-5.60;99.90;;;;;;4836956;29;20411;-78
2021/01/18 07:35:38;;;;;;;19.33;12.15;;;-5.60;99.90;;;;;;4896561;28;20422;-76
2021/01/18 07:38:15;;;;;;;17.33;11.05;;;-5.60;99.90;;;;;;4867682;29;20474;-76
2021/01/18 07:40:41;;;;;;;21.63;12.07;;;-5.50;99.90;;;;;;4899546;28;20416;-75
2021/01/18 07:43:07;;;;;;;19.05;12.20;;;-5.50;99.90;;;;;;4853827;29;20778;-76
2021/01/18 07:45:33;;;;;;;19.65;13.60;;;-5.50;99.90;;;;;;4851165;28;20486;-78
2021/01/18 07:48:03;;;;;;;16.75;11.32;;;-5.50;99.90;;;;;;4902270;28;21309;-75
2021/01/18 07:50:39;;;;;;;18.05;13.30;;;-5.50;99.90;;;;;;4863312;28;20484;-76
2021/01/18 07:53:09;;;;;;;27.77;19.03;;;-5.40;99.90;;;;;;4854907;28;20863;-75
2021/01/18 07:55:35;;;;;;;23.38;16.65;;;-5.40;99.90;;;;;;4887160;28;20414;-76
2021/01/18 07:58:15;;;;;;;22.33;15.80;;;-5.30;99.90;;;;;;4866492;29;20468;-75
2021/01/18 08:00:41;;;;;;;20.75;13.13;;;-5.30;99.90;;;;;;4853198;29;20463;-76
2021/01/18 08:03:10;;;;;;;19.80;11.88;;;-5.30;99.90;;;;;;4860683;29;20460;-76
2021/01/18 08:05:37;;;;;;;16.98;10.93;;;-5.30;99.90;;;;;;4892405;28;20438;-76
2021/01/18 08:08:04;;;;;;;15.32;11.43;;;-5.20;99.90;;;;;;4847838;28;20393;-76
2021/01/18 08:11:00;;;;;;;22.48;11.68;;;-5.20;99.90;;;;;;4878522;28;20451;-76
2021/01/18 08:13:53;;;;;;;20.23;11.95;;;-5.20;99.90;;;;;;4843408;29;20428;-75
2021/01/18 08:16:23;;;;;;;16.55;12.13;;;-5.10;99.90;;;;;;4891186;29;20931;-75
2021/01/18 08:19:18;;;;;;;19.33;12.68;;;-5.10;99.90;;;;;;4873156;28;20415;-75
2021/01/18 08:21:53;;;;;;;18.33;12.70;;;-5.10;99.90;;;;;;4860560;28;20524;-75
2021/01/18 08:24:28;;;;;;;16.27;11.20;;;-5.00;99.90;;;;;;4841709;29;20506;-76
2021/01/18 08:27:06;;;;;;;16.38;11.98;;;-4.90;99.90;;;;;;4866507;29;20521;-76
2021/01/18 08:29:52;;;;;;;17.02;11.52;;;-4.90;99.90;;;;;;4847045;29;20769;-76
2021/01/18 08:32:24;;;;;;;20.33;12.30;;;-4.80;99.90;;;;;;4850646;28;20482;-76
2021/01/18 08:34:53;;;;;;;19.38;12.45;;;-4.90;99.90;;;;;;4917900;29;20422;-77
2021/01/18 08:37:19;;;;;;;18.35;13.75;;;-4.80;99.90;;;;;;4915433;29;20410;-80
2021/01/18 08:39:58;;;;;;;18.08;12.20;;;-4.70;99.90;;;;;;4923210;29;20396;-76
2021/01/18 08:42:38;;;;;;;17.90;11.75;;;-4.70;99.90;;;;;;4851222;28;20411;-77
2021/01/18 08:45:08;;;;;;;17.83;12.15;;;-4.60;99.90;;;;;;4906231;28;20441;-77
2021/01/18 08:47:34;;;;;;;18.35;11.25;;;-4.60;99.90;;;;;;4865858;29;20415;-76
2021/01/18 08:50:18;;;;;;;15.50;11.75;;;-4.60;99.90;;;;;;4889456;29;20441;-77
2021/01/18 08:52:44;;;;;;;22.15;14.30;;;-4.50;99.90;;;;;;4853725;28;20418;-75
2021/01/18 08:55:45;;;;;;;17.87;13.07;;;-4.40;99.90;;;;;;4877271;28;20422;-76
2021/01/18 08:58:12;;;;;;;19.20;13.37;;;-4.30;99.90;;;;;;4806716;29;20515;-76
2021/01/18 09:00:44;;;;;;;22.17;15.63;;;-4.20;99.90;;;;;;4905351;29;20521;-77
2021/01/18 09:03:11;;;;;;;24.58;15.05;;;-4.20;99.90;;;;;;4869867;29;20470;-77
2021/01/18 09:05:37;;;;;;;20.90;14.98;;;-4.10;99.90;;;;;;4875808;28;21036;-77
2021/01/18 09:08:04;;;;;;;19.38;14.20;;;-4.10;99.90;;;;;;4873222;28;20482;-78
2021/01/18 09:10:30;;;;;;;20.80;14.15;;;-4.00;99.90;;;;;;4852457;28;20404;-76
2021/01/18 09:12:59;;;;;;;18.58;12.85;;;-3.90;99.90;;;;;;4860078;29;20427;-77
2021/01/18 09:15:25;;;;;;;19.08;13.02;;;-3.70;99.90;;;;;;4838989;28;20519;-77
2021/01/18 09:17:52;;;;;;;16.55;12.23;;;-3.70;99.90;;;;;;4900204;28;20468;-76
2021/01/18 09:20:18;;;;;;;20.47;13.00;;;-3.60;99.90;;;;;;4852205;29;20399;-79
2021/01/18 09:22:44;;;;;;;18.65;12.60;;;-3.60;99.90;;;;;;4870362;29;20523;-77
2021/01/18 09:25:11;;;;;;;21.77;14.00;;;-3.50;99.90;;;;;;4902334;28;20415;-78
2021/01/18 09:27:38;;;;;;;90.40;46.53;;;-3.40;99.90;;;;;;4864045;29;20422;-77
2021/01/18 09:30:09;;;;;;;29.23;16.53;;;-3.40;99.90;;;;;;4869074;28;20898;-77
2021/01/18 09:32:38;;;;;;;76.85;39.22;;;-3.40;99.90;;;;;;4828680;29;20420;-77
2021/01/18 09:35:11;;;;;;;87.43;46.43;;;-3.40;99.90;;;;;;4860842;29;20420;-77
2021/01/18 09:37:42;;;;;;;69.40;38.70;;;-3.30;99.90;;;;;;4880229;28;20419;-76
2021/01/18 09:40:08;;;;;;;128.40;69.25;;;-3.30;99.90;;;;;;4905902;28;20416;-79
2021/01/18 09:42:35;;;;;;;37.45;21.23;;;-3.30;99.90;;;;;;4879032;29;20419;-76
2021/01/18 09:45:02;;;;;;;22.02;15.32;;;-3.20;99.90;;;;;;4863289;29;20412;-79
2021/01/18 09:47:29;;;;;;;29.30;19.97;;;-3.10;99.90;;;;;;4875276;29;20429;-77
2021/01/18 09:50:03;;;;;;;18.48;13.02;;;-3.10;99.90;;;;;;4894798;28;20416;-78
2021/01/18 09:52:28;;;;;;;21.13;13.60;;;-3.10;99.90;;;;;;4867898;28;20413;-78
2021/01/18 09:54:54;;;;;;;18.73;12.95;;;-3.10;99.90;;;;;;4862187;29;20430;-79
2021/01/18 09:57:19;;;;;;;17.67;13.07;;;-3.10;99.90;;;;;;4886922;28;20473;-77
2021/01/18 09:59:45;;;;;;;18.13;12.50;;;-3.10;99.90;;;;;;4861052;29;20434;-81
2021/01/18 10:02:11;;;;;;;19.05;13.30;;;-3.00;99.90;;;;;;4872614;28;21150;-75
2021/01/18 10:04:39;;;;;;;16.73;12.57;;;-3.00;99.90;;;;;;4895106;29;20477;-77
2021/01/18 10:07:06;;;;;;;19.90;12.57;;;-3.00;99.90;;;;;;4853811;28;20412;-79
2021/01/18 10:09:31;;;;;;;19.25;13.57;;;-2.90;99.90;;;;;;4843636;28;20402;-83
2021/01/18 10:11:59;;;;;;;16.20;12.60;;;-2.80;99.90;;;;;;4852290;28;20423;-75
2021/01/18 10:14:27;;;;;;;18.95;13.52;;;-2.80;99.90;;;;;;4844226;28;20457;-77
2021/01/18 10:17:00;;;;;;;17.58;13.25;;;-2.80;99.90;;;;;;4857084;28;21232;-75
2021/01/18 10:19:26;;;;;;;20.05;13.77;;;-2.80;99.90;;;;;;4855275;28;20425;-78
2021/01/18 10:21:53;;;;;;;17.77;13.27;;;-2.70;99.90;;;;;;4842439;29;20455;-79
2021/01/18 10:24:54;;;;;;;19.05;13.48;;;-2.60;99.90;;;;;;4842916;28;20781;-75
2021/01/18 10:27:24;;;;;;;19.50;13.52;;;-2.50;99.90;;;;;;4845541;28;20559;-79
2021/01/18 10:29:57;;;;;;;22.65;14.65;;;-2.50;99.90;;;;;;4875592;29;20409;-78
2021/01/18 10:32:23;;;;;;;21.40;14.07;;;-2.40;99.90;;;;;;4921555;29;21301;-78
2021/01/18 10:34:48;;;;;;;19.67;13.60;;;-2.40;99.90;;;;;;4870575;29;20504;-82
2021/01/18 10:37:17;;;;;;;18.73;13.00;;;-2.40;99.90;;;;;;4873131;29;20407;-79
2021/01/18 10:39:43;;;;;;;25.63;16.58;;;-2.40;99.90;;;;;;4840041;29;20454;-78
2021/01/18 10:42:10;;;;;;;24.17;15.87;;;-2.30;99.90;;;;;;4916795;28;20229;-83
2021/01/18 10:44:46;;;;;;;18.52;13.63;;;-2.20;99.90;;;;;;4843309;29;20993;-81
2021/01/18 10:47:12;;;;;;;22.63;16.00;;;-2.20;99.90;;;;;;4885948;28;20409;-78
2021/01/18 10:49:38;;;;;;;22.20;15.18;;;-2.20;99.90;;;;;;4857132;28;20456;-83
2021/01/18 10:52:09;;;;;;;19.87;13.40;;;-2.20;99.90;;;;;;4884075;28;20502;-85
2021/01/18 10:54:35;;;;;;;21.37;14.73;;;-2.10;99.90;;;;;;4881489;29;20490;-79
2021/01/18 10:57:01;;;;;;;19.98;13.15;;;-2.00;99.90;;;;;;4855643;29;20422;-86
2021/01/18 10:59:27;;;;;;;16.73;12.50;;;-1.90;99.90;;;;;;4879303;28;20409;-82
2021/01/18 11:02:04;;;;;;;19.17;12.73;;;-1.90;99.90;;;;;;4864468;29;20413;-76
2021/01/18 11:04:30;;;;;;;17.90;12.90;;;-1.90;99.90;;;;;;4836854;29;20406;-85
2021/01/18 11:06:56;;;;;;;20.37;13.00;;;-1.80;99.90;;;;;;4850903;28;21243;-80
2021/01/18 11:09:34;;;;;;;20.10;13.48;;;-1.70;99.90;;;;;;4850337;28;21026;-80
2021/01/18 11:12:00;;;;;;;14.70;11.03;;;-1.70;99.90;;;;;;4846795;28;20228;-76
2021/01/18 11:14:28;;;;;;;21.10;13.70;;;-1.60;99.90;;;;;;4844786;29;20435;-79
2021/01/18 11:17:02;;;;;;;18.27;13.57;;;-1.70;99.90;;;;;;4864268;28;20542;-78
2021/01/18 11:19:27;;;;;;;19.50;13.80;;;-1.70;99.90;;;;;;4875695;28;20416;-78
2021/01/18 11:21:53;;;;;;;19.07;13.13;;;-1.70;99.90;;;;;;4890355;29;20407;-81
2021/01/18 11:24:19;;;;;;;17.80;13.13;;;-1.70;99.90;;;;;;4873227;28;20438;-77
2021/01/18 11:26:51;;;;;;;18.75;14.13;;;-1.60;99.90;;;;;;4884884;28;20821;-81
2021/01/18 11:29:17;;;;;;;20.25;13.88;;;-1.50;99.90;;;;;;4916473;28;20415;-79
2021/01/18 11:31:44;;;;;;;17.83;12.90;;;-1.50;99.90;;;;;;4888603;28;20407;-76
2021/01/18 11:34:09;;;;;;;18.20;13.43;;;-1.40;99.90;;;;;;4845261;29;20424;-79
2021/01/18 11:36:35;;;;;;;17.73;13.63;;;-1.40;99.90;;;;;;4851816;29;20464;-76
2021/01/18 11:39:01;;;;;;;15.87;10.77;;;-1.20;99.90;;;;;;4869224;28;20314;-81
2021/01/18 11:41:27;;;;;;;17.70;12.45;;;-1.10;99.90;;;;;;4847208;29;20983;-77
2021/01/18 11:43:55;;;;;;;20.02;14.30;;;-1.00;99.90;;;;;;4839061;29;20469;-74
2021/01/18 11:46:21;;;;;;;20.40;14.63;;;-0.90;99.90;;;;;;4859712;29;20491;-74
2021/01/18 11:48:47;;;;;;;20.23;13.68;;;-0.90;99.90;;;;;;4906364;28;20488;-74
2021/01/18 11:51:12;;;;;;;20.48;13.35;;;-0.80;99.90;;;;;;4844749;28;20411;-74
2021/01/18 11:53:38;;;;;;;20.53;14.47;;;-0.80;99.90;;;;;;4840040;29;20950;-78
2021/01/18 11:56:04;;;;;;;20.23;14.15;;;-0.80;99.90;;;;;;4878717;28;20414;-74
2021/01/18 11:58:30;;;;;;;18.25;13.80;;;-0.80;99.90;;;;;;4853378;29;20404;-75
2021/01/18 12:00:55;;;;;;;20.98;14.60;;;-0.90;99.90;;;;;;4877082;29;20388;-78
2021/01/18 12:03:22;;;;;;;18.50;13.67;;;-0.80;99.90;;;;;;4872588;29;20404;-77
2021/01/18 12:05:47;;;;;;;22.03;15.60;;;-0.80;99.90;;;;;;4881841;28;20395;-78
2021/01/18 12:08:13;;;;;;;18.77;14.10;;;-0.80;99.90;;;;;;4858023;29;20407;-79
2021/01/18 12:10:39;;;;;;;20.70;15.32;;;-0.90;99.90;;;;;;4885120;28;20415;-76
2021/01/18 12:13:05;;;;;;;22.10;14.82;;;-0.90;99.90;;;;;;4856659;29;20499;-82
2021/01/18 12:15:33;;;;;;;18.55;14.32;;;-0.90;99.90;;;;;;4873243;29;20419;-79
2021/01/18 12:17:58;;;;;;;19.27;13.75;;;-0.90;99.90;;;;;;4873194;28;20397;-83
2021/01/18 12:20:24;;;;;;;18.80;13.60;;;-0.90;99.90;;;;;;4871035;28;20584;-77
2021/01/18 12:22:53;;;;;;;19.33;14.43;;;-0.70;99.90;;;;;;4860585;29;20414;-77
2021/01/18 12:25:19;;;;;;;19.37;14.20;;;-0.70;99.90;;;;;;4893252;28;20408;-76
2021/01/18 12:27:55;;;;;;;19.93;13.77;;;-0.70;99.90;;;;;;4840191;29;21078;-80
2021/01/18 12:30:22;;;;;;;17.38;14.43;;;-0.60;99.90;;;;;;4848175;28;20415;-79
2021/01/18 12:32:48;;;;;;;19.85;13.85;;;-0.50;99.90;;;;;;4898077;28;20487;-77
2021/01/18 12:35:14;;;;;;;19.52;14.18;;;-0.50;99.90;;;;;;4843420;29;20624;-76
2021/01/18 12:37:39;;;;;;;19.50;14.70;;;-0.30;99.90;;;;;;4877415;28;20429;-76
2021/01/18 12:40:06;;;;;;;21.90;15.20;;;-0.50;99.90;;;;;;4846652;28;20416;-80